Pagina principale
METAR-TAF:

METAR-TAF

Aeroporti :

Annecy, Francia

latitudine: 45-55-45N, longitudine: 006-05-56E, altezza: 463 m

Osservazione

Il bollettino è stato emesso 33 minuti fa, alle 17:00 UTC
Vento 2 kt da direzioni variabili
Temperature 5°C
Umidità 70%
Pressione 1023 hPa
Visibilità 10 km o più
Cielo coperto ad un'altezza di 2800 ft

METAR: LFLP 181700Z AUTO VRB02KT 9999 OVC028 05/00 Q1023 NOSIG

Ora: 18:33 (17:33 UTC)

Previsione

Il bollettino è stato emesso 3 ore e 33 minuti fa, alle 14:00 UTC
Previsione valida dal 18 alle 15 UTC al 19 alle 15 UTC
Vento 4 kt da nord
Visibilità 10 km o più
Nuvoloso ad un'altezza di 2300 ft
Probabilità 30% :
Temporaneamente
dal 19 alle 06 UTC al 19 alle 12 UTC
pioggia debole

TAF: LFLP 181400Z 1815/1915 36004KT 9999 BKN023 PROB30 TEMPO 1906/1912 -RA

Osservazioni e previsioni meteorologiche di più di 4000 aeroporti (messaggi METAR e TAF).

Le stazioni disponibili sono rappresentate dai dischi gialli e rossi sulla carta.

Puntare il mouse per vedere il nome della stazione.

Clicca sopra per visualizzare le osservazioni e previsioni meteorologiche.

Per cambiare la mappa : fare clic sui pulsanti verdi con una croce nera per ingrandire, il pulsante verde con un trattino per diminuire, o sulla freccia verde per le mappe adiacenti.


METAR-TAF: